Time;durP1;ratioP1;P1;durP2;ratioP2;P2;SDS_P1;SDS_P2;PMS_P1;PMS_P2;Temp;Humidity;BMP_temperature;BMP_pressure;BME280_temperature;BME280_humidity;BME280_pressure;Samples;Min_cycle;Max_cycle;Signal;HPM_P1;HPM_P2
2022/08/23 00:02:23;;;;;;;7.80;3.15;;;;;;;;;;4972397;28;20425;-69
2022/08/23 00:04:48;;;;;;;8.25;3.55;;;;;;;;;;4973542;28;20049;-69
2022/08/23 00:07:15;;;;;;;11.15;3.88;;;;;;;;;;4960198;28;20316;-69
2022/08/23 00:09:41;;;;;;;8.88;3.88;;;;;;;;;;4973830;28;20163;-69
2022/08/23 00:12:09;;;;;;;8.95;4.00;;;;;;;;;;4972854;28;20246;-69
2022/08/23 00:14:36;;;;;;;7.82;3.38;;;;;;;;;;4956496;28;20276;-69
2022/08/23 00:17:03;;;;;;;7.60;3.80;;;;;;;;;;4973075;28;20060;-69
2022/08/23 00:19:29;;;;;;;8.38;4.13;;;;;;;;;;4975011;28;20280;-69
2022/08/23 00:21:55;;;;;;;7.28;4.03;;;;;;;;;;4973556;28;20094;-69
2022/08/23 00:24:21;;;;;;;7.75;4.20;;;;;;;;;;4972787;28;21072;-69
2022/08/23 00:26:49;;;;;;;8.10;3.70;;;;;;;;;;4972748;28;20483;-69
2022/08/23 00:29:14;;;;;;;12.20;4.03;;;;;;;;;;4959625;28;20240;-69
2022/08/23 00:31:40;;;;;;;13.25;4.05;;;;;;;;;;4976062;28;20239;-68
2022/08/23 00:34:05;;;;;;;11.23;4.00;;;;;;;;;;4975791;28;20030;-70
2022/08/23 00:36:31;;;;;;;8.02;3.92;;;;;;;;;;4976111;28;20044;-70
2022/08/23 00:38:56;;;;;;;14.38;4.82;;;;;;;;;;4976971;28;20030;-69
2022/08/23 00:41:21;;;;;;;7.43;3.85;;;;;;;;;;4958859;28;20220;-69
2022/08/23 00:49:32;;;;;;;11.95;4.20;;;;;;;;;;4965072;28;20041;-69
2022/08/23 00:52:09;;;;;;;10.73;4.90;;;;;;;;;;4959484;28;20156;-70
2022/08/23 00:54:36;;;;;;;7.10;4.07;;;;;;;;;;4940063;28;20621;-69
2022/08/23 00:57:04;;;;;;;9.98;4.00;;;;;;;;;;4957189;28;20038;-69
2022/08/23 00:59:30;;;;;;;10.40;4.40;;;;;;;;;;4957587;28;20045;-69
2022/08/23 01:01:56;;;;;;;8.30;4.03;;;;;;;;;;4971531;28;20145;-69
2022/08/23 01:04:30;;;;;;;9.70;4.30;;;;;;;;;;4956612;28;20038;-69
2022/08/23 01:07:06;;;;;;;12.25;4.65;;;;;;;;;;4956900;28;20149;-69
2022/08/23 01:09:31;;;;;;;10.85;5.28;;;;;;;;;;4957510;28;20455;-69
2022/08/23 01:12:09;;;;;;;10.95;4.40;;;;;;;;;;4958183;28;20405;-69
2022/08/23 01:14:37;;;;;;;9.02;4.50;;;;;;;;;;4956218;28;20784;-69
2022/08/23 01:17:07;;;;;;;10.48;4.78;;;;;;;;;;4957646;28;20455;-69
2022/08/23 01:19:35;;;;;;;7.45;4.22;;;;;;;;;;4955083;28;20030;-69
2022/08/23 01:22:08;;;;;;;11.90;4.68;;;;;;;;;;4957592;28;20113;-69
2022/08/23 01:24:33;;;;;;;9.82;4.63;;;;;;;;;;4957294;28;20126;-69
2022/08/23 01:26:59;;;;;;;9.50;4.75;;;;;;;;;;4957263;28;20149;-70
2022/08/23 01:29:25;;;;;;;12.13;5.03;;;;;;;;;;4955938;28;20037;-70
2022/08/23 01:31:50;;;;;;;13.90;4.78;;;;;;;;;;4956153;28;20553;-70
2022/08/23 01:34:17;;;;;;;11.27;4.53;;;;;;;;;;4956027;28;20314;-69
2022/08/23 01:36:43;;;;;;;9.73;5.20;;;;;;;;;;4958744;28;20034;-70
2022/08/23 01:39:09;;;;;;;8.80;4.82;;;;;;;;;;4956634;28;20038;-70
2022/08/23 01:41:37;;;;;;;11.43;5.20;;;;;;;;;;4958489;28;20450;-70
2022/08/23 01:44:04;;;;;;;9.27;4.72;;;;;;;;;;4958758;28;21771;-70
2022/08/23 01:46:30;;;;;;;11.60;4.90;;;;;;;;;;4957612;28;20439;-70
2022/08/23 01:48:55;;;;;;;11.75;5.30;;;;;;;;;;4969994;28;20740;-70
2022/08/23 01:51:22;;;;;;;11.82;5.53;;;;;;;;;;4963348;28;20307;-69
2022/08/23 01:53:48;;;;;;;13.07;6.05;;;;;;;;;;4974807;28;20192;-69
2022/08/23 01:56:14;;;;;;;11.70;6.07;;;;;;;;;;4974989;28;20156;-70
2022/08/23 01:58:40;;;;;;;10.45;5.45;;;;;;;;;;4975459;28;20362;-69
2022/08/23 02:01:05;;;;;;;15.27;6.63;;;;;;;;;;4973953;28;20038;-70
2022/08/23 02:03:31;;;;;;;24.75;9.57;;;;;;;;;;4974374;28;21104;-70
2022/08/23 02:05:57;;;;;;;36.58;11.63;;;;;;;;;;4975288;28;20038;-70
2022/08/23 02:11:17;;;;;;;20.85;9.85;;;;;;;;;;4974610;28;20036;-70
2022/08/23 02:13:43;;;;;;;13.80;8.10;;;;;;;;;;4974908;28;21098;-70
2022/08/23 02:16:10;;;;;;;23.08;11.15;;;;;;;;;;4976521;28;20275;-69
2022/08/23 02:18:36;;;;;;;23.13;12.85;;;;;;;;;;4974920;28;20144;-69
2022/08/23 02:21:02;;;;;;;20.45;11.10;;;;;;;;;;4975647;28;20644;-70
2022/08/23 02:23:27;;;;;;;17.73;8.20;;;;;;;;;;4975057;28;20064;-70
2022/08/23 02:25:53;;;;;;;11.90;6.70;;;;;;;;;;4943106;28;20164;-69
2022/08/23 02:28:18;;;;;;;14.32;8.25;;;;;;;;;;4964994;28;20079;-69
2022/08/23 02:30:44;;;;;;;20.98;11.98;;;;;;;;;;4976150;28;20053;-69
2022/08/23 02:33:10;;;;;;;21.63;15.65;;;;;;;;;;4959369;28;20664;-69
2022/08/23 02:35:35;;;;;;;17.38;13.35;;;;;;;;;;4974575;28;20084;-69
2022/08/23 02:38:04;;;;;;;23.58;11.50;;;;;;;;;;4975118;28;20458;-69
2022/08/23 02:40:29;;;;;;;23.90;10.55;;;;;;;;;;4957572;28;20045;-69
2022/08/23 02:42:55;;;;;;;18.98;10.02;;;;;;;;;;4975703;28;20525;-68
2022/08/23 02:45:20;;;;;;;17.67;9.27;;;;;;;;;;4973869;28;20124;-69
2022/08/23 02:47:46;;;;;;;21.58;9.70;;;;;;;;;;4972657;28;20044;-69
2022/08/23 02:50:12;;;;;;;21.50;9.77;;;;;;;;;;4975141;28;20041;-69
2022/08/23 02:52:38;;;;;;;31.95;11.88;;;;;;;;;;4973812;28;20283;-69
2022/08/23 02:55:04;;;;;;;28.13;10.57;;;;;;;;;;4973350;28;20156;-68
2022/08/23 02:57:29;;;;;;;27.80;10.52;;;;;;;;;;4975077;28;20440;-69
2022/08/23 02:59:56;;;;;;;26.45;9.85;;;;;;;;;;4975017;28;20051;-69
2022/08/23 03:02:22;;;;;;;26.77;10.40;;;;;;;;;;4963764;28;20647;-69
2022/08/23 03:04:47;;;;;;;26.23;9.55;;;;;;;;;;4973760;28;20038;-69
2022/08/23 03:07:13;;;;;;;27.65;9.40;;;;;;;;;;4973439;28;20053;-69
2022/08/23 03:09:39;;;;;;;22.30;8.23;;;;;;;;;;4972657;28;20052;-69
2022/08/23 03:12:04;;;;;;;24.00;8.65;;;;;;;;;;4971669;28;20037;-69
2022/08/23 03:14:30;;;;;;;22.65;8.60;;;;;;;;;;4973298;28;21751;-70
2022/08/23 03:16:55;;;;;;;22.75;7.95;;;;;;;;;;4956254;28;20033;-70
2022/08/23 03:19:20;;;;;;;14.60;7.18;;;;;;;;;;4972180;28;20114;-70
2022/08/23 03:21:46;;;;;;;18.60;7.35;;;;;;;;;;4973695;28;20049;-70
2022/08/23 03:24:11;;;;;;;16.10;7.90;;;;;;;;;;4973559;28;20111;-70
2022/08/23 03:26:40;;;;;;;16.27;7.57;;;;;;;;;;4973778;28;20292;-70
2022/08/23 03:29:05;;;;;;;17.55;8.73;;;;;;;;;;4973541;28;20128;-70
2022/08/23 03:31:31;;;;;;;17.55;8.18;;;;;;;;;;4974237;28;21083;-70
2022/08/23 03:33:57;;;;;;;20.30;9.02;;;;;;;;;;4970027;28;20123;-70
2022/08/23 03:36:22;;;;;;;19.27;9.35;;;;;;;;;;4975043;28;20041;-70
2022/08/23 03:38:48;;;;;;;24.00;10.77;;;;;;;;;;4972461;28;20504;-70
2022/08/23 03:41:14;;;;;;;25.13;11.35;;;;;;;;;;4974964;28;20117;-69
2022/08/23 03:43:39;;;;;;;23.20;12.23;;;;;;;;;;4957950;28;20041;-70
2022/08/23 03:46:05;;;;;;;29.35;11.88;;;;;;;;;;4974567;28;20041;-70
2022/08/23 03:48:30;;;;;;;27.73;11.07;;;;;;;;;;4961853;28;20616;-70
2022/08/23 03:50:56;;;;;;;30.17;11.50;;;;;;;;;;4954545;28;20358;-70
2022/08/23 03:53:22;;;;;;;30.88;11.23;;;;;;;;;;4973440;28;21641;-70
2022/08/23 03:55:49;;;;;;;34.45;11.20;;;;;;;;;;4974552;28;21917;-70
2022/08/23 03:58:14;;;;;;;36.03;11.93;;;;;;;;;;4971938;28;20062;-69
2022/08/23 04:00:40;;;;;;;27.52;10.13;;;;;;;;;;4959486;28;20099;-68
2022/08/23 04:03:05;;;;;;;32.20;10.68;;;;;;;;;;4973498;28;20025;-69
2022/08/23 04:05:31;;;;;;;26.05;10.00;;;;;;;;;;4965071;28;20538;-69
2022/08/23 04:07:56;;;;;;;22.77;9.00;;;;;;;;;;4976930;28;20237;-69
2022/08/23 04:10:21;;;;;;;22.95;9.75;;;;;;;;;;4976013;28;20083;-69
2022/08/23 04:12:47;;;;;;;21.10;9.23;;;;;;;;;;4976638;28;20413;-69
2022/08/23 04:15:12;;;;;;;20.67;9.10;;;;;;;;;;4977723;28;20338;-69
2022/08/23 04:17:38;;;;;;;18.02;8.05;;;;;;;;;;4976739;28;20068;-69
2022/08/23 04:20:04;;;;;;;16.15;8.32;;;;;;;;;;4976337;28;20615;-69
2022/08/23 04:22:30;;;;;;;17.65;8.13;;;;;;;;;;4977688;28;20354;-69
2022/08/23 04:24:55;;;;;;;17.00;7.78;;;;;;;;;;4976429;28;20132;-69
2022/08/23 04:27:21;;;;;;;15.18;7.85;;;;;;;;;;4977485;28;20358;-69
2022/08/23 04:29:46;;;;;;;18.45;7.85;;;;;;;;;;4977249;28;20068;-69
2022/08/23 04:32:13;;;;;;;15.05;7.43;;;;;;;;;;4975403;28;20410;-71
2022/08/23 04:34:39;;;;;;;16.20;7.22;;;;;;;;;;4963285;28;20457;-69
2022/08/23 04:37:04;;;;;;;13.63;6.93;;;;;;;;;;4977417;28;20570;-69
2022/08/23 04:42:16;;;;;;;20.80;8.15;;;;;;;;;;4960114;28;20041;-69
2022/08/23 04:42:18;;;;;;;23.33;9.02;;;;;;;;;;4964440;28;20042;-69
2022/08/23 04:44:43;;;;;;;21.35;8.02;;;;;;;;;;4977461;28;20057;-69
2022/08/23 04:47:09;;;;;;;22.40;9.00;;;;;;;;;;4957655;28;20392;-69
2022/08/23 04:49:34;;;;;;;23.27;10.05;;;;;;;;;;4975936;28;20040;-69
2022/08/23 04:52:00;;;;;;;29.80;9.48;;;;;;;;;;4976699;28;20076;-69
2022/08/23 04:54:25;;;;;;;25.63;9.23;;;;;;;;;;4976402;28;20501;-69
2022/08/23 04:56:51;;;;;;;19.90;8.77;;;;;;;;;;4974442;28;20589;-70
2022/08/23 04:59:16;;;;;;;26.10;9.15;;;;;;;;;;4956720;28;20060;-70
2022/08/23 05:01:42;;;;;;;29.73;9.85;;;;;;;;;;4977198;28;20075;-69
2022/08/23 05:04:08;;;;;;;28.42;10.45;;;;;;;;;;4976125;28;20489;-69
2022/08/23 05:06:34;;;;;;;21.33;8.30;;;;;;;;;;4975772;28;20042;-69
2022/08/23 05:09:00;;;;;;;19.25;8.00;;;;;;;;;;4976876;28;20477;-69
2022/08/23 05:11:27;;;;;;;18.90;8.65;;;;;;;;;;4977030;28;20026;-69
2022/08/23 05:13:53;;;;;;;21.33;11.93;;;;;;;;;;4976297;28;20040;-70
2022/08/23 05:16:19;;;;;;;19.63;12.88;;;;;;;;;;4975782;28;20276;-68
2022/08/23 05:18:45;;;;;;;21.30;12.55;;;;;;;;;;4958638;28;20053;-70
2022/08/23 05:21:18;;;;;;;21.27;12.10;;;;;;;;;;4973372;28;20402;-70
2022/08/23 05:23:44;;;;;;;15.90;9.48;;;;;;;;;;4972183;28;20045;-68
2022/08/23 05:26:10;;;;;;;19.17;8.65;;;;;;;;;;4975777;28;20433;-69
2022/08/23 05:28:38;;;;;;;17.10;7.50;;;;;;;;;;4975632;28;20314;-68
2022/08/23 05:31:11;;;;;;;14.73;7.65;;;;;;;;;;4974795;28;20030;-69
2022/08/23 05:33:37;;;;;;;17.13;9.32;;;;;;;;;;4976859;28;20153;-70
2022/08/23 05:36:03;;;;;;;15.77;9.88;;;;;;;;;;4974164;28;20038;-71
2022/08/23 05:38:29;;;;;;;18.30;11.32;;;;;;;;;;4976543;28;20037;-71
2022/08/23 05:40:56;;;;;;;17.83;11.57;;;;;;;;;;4975743;28;20049;-71
2022/08/23 05:43:21;;;;;;;19.98;14.90;;;;;;;;;;4951056;28;20037;-71
2022/08/23 05:45:47;;;;;;;19.08;13.85;;;;;;;;;;4960262;28;20467;-71
2022/08/23 05:48:14;;;;;;;20.17;15.40;;;;;;;;;;4975994;28;20376;-70
2022/08/23 05:50:40;;;;;;;23.10;14.82;;;;;;;;;;4977059;28;20041;-71
2022/08/23 05:53:06;;;;;;;22.80;17.27;;;;;;;;;;4976101;28;20463;-71
2022/08/23 05:55:31;;;;;;;21.27;14.07;;;;;;;;;;4977192;28;20041;-71
2022/08/23 05:57:57;;;;;;;21.92;14.93;;;;;;;;;;4961609;28;20481;-72
2022/08/23 06:00:23;;;;;;;20.92;13.40;;;;;;;;;;4959780;28;20505;-71
2022/08/23 06:02:49;;;;;;;20.98;15.55;;;;;;;;;;4976498;28;20220;-72
2022/08/23 06:05:15;;;;;;;23.00;18.00;;;;;;;;;;4976430;28;20025;-71
2022/08/23 06:07:40;;;;;;;24.10;16.70;;;;;;;;;;4976914;28;20477;-71
2022/08/23 06:10:06;;;;;;;24.48;19.60;;;;;;;;;;4976722;28;20506;-73
2022/08/23 06:12:32;;;;;;;22.58;17.90;;;;;;;;;;4973764;28;20363;-72
2022/08/23 06:14:58;;;;;;;18.35;14.35;;;;;;;;;;4952772;28;20194;-73
2022/08/23 06:17:23;;;;;;;19.90;14.27;;;;;;;;;;4977290;28;20140;-71
2022/08/23 06:19:49;;;;;;;24.42;17.50;;;;;;;;;;4976821;28;20641;-72
2022/08/23 06:22:14;;;;;;;23.75;18.67;;;;;;;;;;4973861;28;20058;-71
2022/08/23 06:24:39;;;;;;;22.02;16.67;;;;;;;;;;4958203;28;20033;-71
2022/08/23 06:27:06;;;;;;;18.70;14.13;;;;;;;;;;4975594;28;20029;-73
2022/08/23 06:29:31;;;;;;;17.67;9.73;;;;;;;;;;4976359;28;20418;-72
2022/08/23 06:31:56;;;;;;;14.35;7.53;;;;;;;;;;4975241;28;20040;-72
2022/08/23 06:34:32;;;;;;;15.15;6.18;;;;;;;;;;4975774;28;20088;-72
2022/08/23 06:36:59;;;;;;;8.98;5.60;;;;;;;;;;4976432;28;20419;-72
2022/08/23 06:39:26;;;;;;;10.77;5.97;;;;;;;;;;4951639;28;20036;-71
2022/08/23 06:41:52;;;;;;;9.73;5.72;;;;;;;;;;4977790;28;20089;-72
2022/08/23 06:44:18;;;;;;;11.82;6.15;;;;;;;;;;4977188;28;20565;-70
2022/08/23 06:46:44;;;;;;;9.77;5.63;;;;;;;;;;4978059;28;20041;-71
2022/08/23 06:49:09;;;;;;;11.60;5.60;;;;;;;;;;4978078;28;20271;-71
2022/08/23 06:51:36;;;;;;;11.82;5.40;;;;;;;;;;4976001;28;20501;-71
2022/08/23 06:54:04;;;;;;;10.25;5.40;;;;;;;;;;4977471;28;20033;-71
2022/08/23 06:56:29;;;;;;;11.73;5.65;;;;;;;;;;4977434;28;20045;-71
2022/08/23 06:58:55;;;;;;;9.90;5.78;;;;;;;;;;4978296;28;20261;-70
2022/08/23 07:01:31;;;;;;;9.75;4.68;;;;;;;;;;4974541;28;20327;-71
2022/08/23 07:03:57;;;;;;;10.13;4.70;;;;;;;;;;4953871;28;20510;-71
2022/08/23 07:06:23;;;;;;;10.48;5.47;;;;;;;;;;4975036;28;20041;-71
2022/08/23 07:08:49;;;;;;;9.68;4.93;;;;;;;;;;4974818;28;20202;-69
2022/08/23 07:11:14;;;;;;;11.82;4.60;;;;;;;;;;4974437;28;20042;-70
2022/08/23 07:13:40;;;;;;;8.90;4.90;;;;;;;;;;4977060;28;20101;-71
2022/08/23 07:16:05;;;;;;;12.18;5.10;;;;;;;;;;4975917;28;20577;-71
2022/08/23 07:18:31;;;;;;;14.45;5.25;;;;;;;;;;4978855;28;20042;-71
2022/08/23 07:20:58;;;;;;;9.23;5.18;;;;;;;;;;4978537;28;20813;-71
2022/08/23 07:23:24;;;;;;;8.93;5.28;;;;;;;;;;4976183;28;20041;-71
2022/08/23 07:25:50;;;;;;;8.73;4.72;;;;;;;;;;4980401;28;20033;-71
2022/08/23 07:28:15;;;;;;;9.95;5.50;;;;;;;;;;4977368;28;20523;-71
2022/08/23 07:30:40;;;;;;;10.57;5.00;;;;;;;;;;4947648;28;20040;-69
2022/08/23 07:33:06;;;;;;;8.27;3.15;;;;;;;;;;4981068;28;20377;-71
2022/08/23 07:35:31;;;;;;;3.67;1.30;;;;;;;;;;4981278;28;20037;-71
2022/08/23 07:37:56;;;;;;;5.43;1.48;;;;;;;;;;4976390;28;20045;-70
2022/08/23 07:40:22;;;;;;;2.80;1.30;;;;;;;;;;4960190;28;20069;-69
2022/08/23 07:42:48;;;;;;;4.90;1.48;;;;;;;;;;4960435;28;20599;-71
2022/08/23 07:45:13;;;;;;;3.67;1.40;;;;;;;;;;4980213;28;20034;-71
2022/08/23 07:47:41;;;;;;;4.38;1.30;;;;;;;;;;4962608;28;20030;-72
2022/08/23 07:50:07;;;;;;;4.82;1.40;;;;;;;;;;4975649;28;20148;-70
2022/08/23 07:52:32;;;;;;;6.22;1.40;;;;;;;;;;4974168;28;20553;-69
2022/08/23 07:54:57;;;;;;;5.10;1.55;;;;;;;;;;4974742;28;20682;-69
2022/08/23 07:57:23;;;;;;;6.68;1.45;;;;;;;;;;4976010;28;20037;-69
2022/08/23 07:59:48;;;;;;;4.55;1.50;;;;;;;;;;4975030;28;20127;-72
2022/08/23 08:02:14;;;;;;;7.72;1.75;;;;;;;;;;4978679;28;20030;-72
2022/08/23 08:04:39;;;;;;;4.95;1.23;;;;;;;;;;4980521;28;20447;-69
2022/08/23 08:07:05;;;;;;;6.30;1.52;;;;;;;;;;4979534;28;20037;-69
2022/08/23 08:09:30;;;;;;;4.50;1.65;;;;;;;;;;4974913;28;21089;-69
2022/08/23 08:11:56;;;;;;;7.28;1.90;;;;;;;;;;4955407;28;20081;-69
2022/08/23 08:14:21;;;;;;;5.35;1.30;;;;;;;;;;4962529;28;20029;-71
2022/08/23 08:16:48;;;;;;;6.80;1.50;;;;;;;;;;4974853;28;20128;-69
2022/08/23 08:19:15;;;;;;;3.55;1.48;;;;;;;;;;4975119;28;20161;-69
2022/08/23 08:21:41;;;;;;;3.75;1.40;;;;;;;;;;4957350;28;20111;-69
2022/08/23 08:24:08;;;;;;;3.95;1.38;;;;;;;;;;4975806;28;20037;-71
2022/08/23 08:26:34;;;;;;;6.68;1.48;;;;;;;;;;4981895;28;20034;-70
2022/08/23 08:28:59;;;;;;;3.40;1.20;;;;;;;;;;4977702;28;20336;-70
2022/08/23 08:31:25;;;;;;;3.75;1.08;;;;;;;;;;4980343;28;20033;-70
2022/08/23 08:33:50;;;;;;;3.47;1.23;;;;;;;;;;4959447;28;20148;-71
2022/08/23 08:36:29;;;;;;;4.30;1.20;;;;;;;;;;4975516;28;20113;-71
2022/08/23 08:38:54;;;;;;;2.58;1.10;;;;;;;;;;4973279;28;20163;-71
2022/08/23 08:41:24;;;;;;;4.78;1.35;;;;;;;;;;4974459;28;20045;-71
2022/08/23 08:43:52;;;;;;;4.47;1.50;;;;;;;;;;4973205;28;20385;-71
2022/08/23 08:46:22;;;;;;;2.28;1.27;;;;;;;;;;4970559;28;22399;-71
2022/08/23 08:48:51;;;;;;;3.05;1.20;;;;;;;;;;4973561;28;20038;-71
2022/08/23 08:51:20;;;;;;;3.90;1.52;;;;;;;;;;4972512;28;20520;-71
2022/08/23 08:53:46;;;;;;;3.40;1.40;;;;;;;;;;4977811;28;20042;-70
2022/08/23 08:56:22;;;;;;;2.75;1.20;;;;;;;;;;4977639;28;20037;-70
2022/08/23 08:58:47;;;;;;;3.20;1.25;;;;;;;;;;4978025;28;20042;-71
2022/08/23 09:01:15;;;;;;;3.75;1.23;;;;;;;;;;4979067;28;20091;-71
2022/08/23 09:03:40;;;;;;;4.40;1.25;;;;;;;;;;4976115;28;20125;-71
2022/08/23 09:06:15;;;;;;;4.50;2.20;;;;;;;;;;4979427;28;20033;-70
2022/08/23 09:08:40;;;;;;;5.70;1.60;;;;;;;;;;4959399;28;20790;-69
2022/08/23 09:11:32;;;;;;;4.05;1.27;;;;;;;;;;4978463;28;20030;-69
2022/08/23 09:14:05;;;;;;;3.55;1.30;;;;;;;;;;4970914;28;20456;-71
2022/08/23 09:16:43;;;;;;;3.38;1.20;;;;;;;;;;4980993;28;20037;-71
2022/08/23 09:19:09;;;;;;;3.50;1.20;;;;;;;;;;4978420;28;20481;-69
2022/08/23 09:21:47;;;;;;;4.57;1.30;;;;;;;;;;4977952;28;20041;-69
2022/08/23 09:24:12;;;;;;;3.33;1.00;;;;;;;;;;4976784;28;20611;-69
2022/08/23 09:26:38;;;;;;;4.03;1.05;;;;;;;;;;4960489;28;20038;-70
2022/08/23 09:29:17;;;;;;;4.55;1.20;;;;;;;;;;4958371;28;20261;-70
2022/08/23 09:31:42;;;;;;;3.08;1.05;;;;;;;;;;4977341;28;20502;-69
2022/08/23 09:34:09;;;;;;;4.60;1.05;;;;;;;;;;4975120;28;20068;-69
2022/08/23 09:36:36;;;;;;;3.30;0.90;;;;;;;;;;4957476;28;20591;-69
2022/08/23 09:39:07;;;;;;;3.58;0.90;;;;;;;;;;4974705;28;20498;-68
2022/08/23 09:41:36;;;;;;;2.50;1.17;;;;;;;;;;4952648;28;20045;-68
2022/08/23 09:44:03;;;;;;;5.00;1.13;;;;;;;;;;4976684;28;20773;-69
2022/08/23 09:46:30;;;;;;;2.50;1.00;;;;;;;;;;4976758;28;20048;-68
2022/08/23 09:49:00;;;;;;;2.53;1.05;;;;;;;;;;4958743;28;20499;-69
2022/08/23 09:51:34;;;;;;;3.70;0.73;;;;;;;;;;4975738;28;20388;-70
2022/08/23 09:54:21;;;;;;;1.65;0.80;;;;;;;;;;4974408;28;20103;-69
2022/08/23 09:56:51;;;;;;;2.85;0.90;;;;;;;;;;4975065;28;21665;-69
2022/08/23 09:59:26;;;;;;;3.33;1.08;;;;;;;;;;4975764;28;20045;-68
2022/08/23 10:01:53;;;;;;;2.60;0.80;;;;;;;;;;4974776;28;20049;-69
2022/08/23 10:04:23;;;;;;;3.78;0.93;;;;;;;;;;4976205;28;20061;-69
2022/08/23 10:06:49;;;;;;;2.38;0.82;;;;;;;;;;4976587;28;20041;-70
2022/08/23 10:09:22;;;;;;;2.15;0.85;;;;;;;;;;4973865;28;20037;-69
2022/08/23 10:11:47;;;;;;;2.88;0.90;;;;;;;;;;4944151;28;20069;-70
2022/08/23 10:14:14;;;;;;;4.40;1.02;;;;;;;;;;4960122;28;20291;-70
2022/08/23 10:16:42;;;;;;;3.20;0.90;;;;;;;;;;4960468;28;20037;-69
2022/08/23 10:19:12;;;;;;;2.47;1.10;;;;;;;;;;4975323;28;20303;-69
2022/08/23 10:21:44;;;;;;;1.98;0.90;;;;;;;;;;4975697;28;20059;-69
2022/08/23 10:24:21;;;;;;;3.05;1.20;;;;;;;;;;4975620;28;20092;-70
2022/08/23 10:29:35;;;;;;;3.50;0.98;;;;;;;;;;4973883;28;20644;-69
2022/08/23 10:29:51;;;;;;;4.00;1.08;;;;;;;;;;4973690;28;20030;-70
2022/08/23 10:32:26;;;;;;;3.13;1.20;;;;;;;;;;4976227;28;20041;-70
2022/08/23 10:35:05;;;;;;;3.05;1.10;;;;;;;;;;4972559;28;20609;-70
2022/08/23 10:37:36;;;;;;;6.78;1.17;;;;;;;;;;4975366;28;20456;-70
2022/08/23 10:40:20;;;;;;;4.45;1.33;;;;;;;;;;4974267;28;20111;-69
2022/08/23 10:42:46;;;;;;;3.10;1.30;;;;;;;;;;4972986;28;20038;-68
2022/08/23 10:45:19;;;;;;;2.53;1.10;;;;;;;;;;4973857;28;20184;-66
2022/08/23 10:47:52;;;;;;;1.95;0.80;;;;;;;;;;4975697;28;20025;-66
2022/08/23 10:50:18;;;;;;;2.38;1.08;;;;;;;;;;4976008;28;20033;-66
2022/08/23 10:52:55;;;;;;;4.05;1.55;;;;;;;;;;4974054;28;20577;-67
2022/08/23 10:55:42;;;;;;;3.08;1.10;;;;;;;;;;4974853;28;20107;-66
2022/08/23 10:58:12;;;;;;;2.95;0.95;;;;;;;;;;4957913;28;20556;-67
2022/08/23 11:00:38;;;;;;;5.10;1.17;;;;;;;;;;4974014;28;20073;-67
2022/08/23 11:03:10;;;;;;;4.75;1.33;;;;;;;;;;4974394;28;20220;-67
2022/08/23 11:05:37;;;;;;;3.45;1.20;;;;;;;;;;4973136;28;20237;-67
2022/08/23 11:08:03;;;;;;;3.00;1.20;;;;;;;;;;4973716;28;20058;-67
2022/08/23 11:10:38;;;;;;;3.13;1.13;;;;;;;;;;4975378;28;20051;-66
2022/08/23 11:13:06;;;;;;;3.67;1.23;;;;;;;;;;4973664;28;20041;-67
2022/08/23 11:15:42;;;;;;;3.53;1.15;;;;;;;;;;4972498;28;20292;-67
2022/08/23 11:18:08;;;;;;;3.88;1.30;;;;;;;;;;4974929;28;20264;-67
2022/08/23 11:20:49;;;;;;;2.95;1.33;;;;;;;;;;4974169;28;20050;-66
2022/08/23 11:23:33;;;;;;;3.17;0.93;;;;;;;;;;4973701;28;20123;-67
2022/08/23 11:25:58;;;;;;;2.63;1.00;;;;;;;;;;4975397;28;20445;-68
2022/08/23 11:28:24;;;;;;;5.35;1.10;;;;;;;;;;4974638;28;20064;-67
2022/08/23 11:30:56;;;;;;;3.22;1.02;;;;;;;;;;4974260;28;20769;-67
2022/08/23 11:33:24;;;;;;;2.10;0.90;;;;;;;;;;4975138;28;20198;-67
2022/08/23 11:35:51;;;;;;;3.67;1.00;;;;;;;;;;4974025;28;20861;-67
2022/08/23 11:38:37;;;;;;;3.83;1.23;;;;;;;;;;4973995;28;20485;-68
2022/08/23 11:41:35;;;;;;;4.57;1.00;;;;;;;;;;4960528;28;20703;-67
2022/08/23 11:44:00;;;;;;;3.03;1.20;;;;;;;;;;4943470;28;20517;-67
2022/08/23 11:46:25;;;;;;;5.40;1.20;;;;;;;;;;4974268;28;20053;-67
2022/08/23 11:49:10;;;;;;;3.00;1.08;;;;;;;;;;4972140;28;20528;-68
2022/08/23 11:51:54;;;;;;;3.13;1.00;;;;;;;;;;4972023;28;20467;-67
2022/08/23 11:54:28;;;;;;;3.83;1.10;;;;;;;;;;4972838;28;20116;-67
2022/08/23 11:57:05;;;;;;;2.83;1.02;;;;;;;;;;4973143;28;20111;-67
2022/08/23 11:59:36;;;;;;;3.92;1.23;;;;;;;;;;4958339;28;20179;-68
2022/08/23 12:02:20;;;;;;;3.67;1.10;;;;;;;;;;4975798;28;20069;-66
2022/08/23 12:04:50;;;;;;;3.65;1.08;;;;;;;;;;4974580;28;20534;-67
2022/08/23 12:07:35;;;;;;;3.03;1.10;;;;;;;;;;4974413;28;20148;-67
2022/08/23 12:10:01;;;;;;;4.65;1.30;;;;;;;;;;4974270;28;20425;-68
2022/08/23 12:12:29;;;;;;;3.50;1.42;;;;;;;;;;4975374;28;20042;-70
2022/08/23 12:14:56;;;;;;;3.65;1.20;;;;;;;;;;4975843;28;20033;-70
2022/08/23 12:17:24;;;;;;;5.25;1.80;;;;;;;;;;4977521;28;20037;-66
2022/08/23 12:19:52;;;;;;;3.97;1.55;;;;;;;;;;4977377;28;20145;-69
2022/08/23 12:22:23;;;;;;;5.40;1.90;;;;;;;;;;4978961;28;20046;-71
2022/08/23 12:24:50;;;;;;;6.75;1.75;;;;;;;;;;4978560;28;20045;-69
2022/08/23 12:27:22;;;;;;;4.57;1.60;;;;;;;;;;4983554;28;20038;-71
2022/08/23 12:29:47;;;;;;;2.78;1.60;;;;;;;;;;4986651;28;20045;-71
2022/08/23 12:32:20;;;;;;;3.63;1.73;;;;;;;;;;4993147;28;20044;-72
2022/08/23 12:35:24;;;;;;;5.40;2.00;;;;;;;;;;4982466;28;20038;-71
2022/08/23 12:38:01;;;;;;;4.18;1.80;;;;;;;;;;4925293;28;20034;-72
2022/08/23 12:40:35;;;;;;;5.18;1.80;;;;;;;;;;4926110;28;20197;-71
2022/08/23 12:43:05;;;;;;;5.03;2.50;;;;;;;;;;4955392;28;20036;-70
2022/08/23 12:45:42;;;;;;;6.18;2.58;;;;;;;;;;4978714;28;20064;-69
2022/08/23 12:48:09;;;;;;;4.10;2.22;;;;;;;;;;4948256;28;20062;-71
2022/08/23 12:50:39;;;;;;;5.57;2.30;;;;;;;;;;4979198;28;20132;-66
2022/08/23 12:53:16;;;;;;;6.55;2.60;;;;;;;;;;4968290;28;21325;-70
2022/08/23 12:55:46;;;;;;;8.07;2.95;;;;;;;;;;4981254;28;20033;-72
2022/08/23 12:58:13;;;;;;;5.53;2.35;;;;;;;;;;4988284;28;20241;-69
2022/08/23 13:00:42;;;;;;;8.50;2.95;;;;;;;;;;4983771;28;20128;-69
2022/08/23 13:03:07;;;;;;;8.40;3.15;;;;;;;;;;4981267;28;20160;-69
2022/08/23 13:05:35;;;;;;;6.32;3.45;;;;;;;;;;4982408;28;20156;-69
2022/08/23 13:08:02;;;;;;;8.25;3.17;;;;;;;;;;4982730;28;20100;-71
2022/08/23 13:10:28;;;;;;;6.45;3.38;;;;;;;;;;4983725;28;20040;-70
2022/08/23 13:12:53;;;;;;;4.30;2.80;;;;;;;;;;4983804;28;20034;-70
2022/08/23 13:15:37;;;;;;;7.03;3.20;;;;;;;;;;4983111;28;20207;-70
2022/08/23 13:18:02;;;;;;;6.93;3.65;;;;;;;;;;4979846;28;20025;-68
2022/08/23 13:20:28;;;;;;;8.35;3.83;;;;;;;;;;4989607;28;20049;-71
2022/08/23 13:23:08;;;;;;;7.45;3.95;;;;;;;;;;4981022;28;20034;-67
2022/08/23 13:25:37;;;;;;;6.10;3.55;;;;;;;;;;4980514;28;20038;-67
2022/08/23 13:28:26;;;;;;;7.03;2.95;;;;;;;;;;4979910;28;20062;-67
2022/08/23 13:31:00;;;;;;;6.32;3.10;;;;;;;;;;4974091;28;20096;-67
2022/08/23 13:33:25;;;;;;;5.38;3.15;;;;;;;;;;4979810;28;20777;-67
2022/08/23 13:36:29;;;;;;;7.70;3.47;;;;;;;;;;4979455;28;20045;-67
2022/08/23 13:39:06;;;;;;;5.43;2.88;;;;;;;;;;4926035;28;20182;-69
2022/08/23 13:41:35;;;;;;;7.50;3.58;;;;;;;;;;4971576;28;20052;-67
2022/08/23 13:44:04;;;;;;;6.75;3.15;;;;;;;;;;4976523;28;20514;-67
2022/08/23 13:46:31;;;;;;;8.00;3.50;;;;;;;;;;4975382;28;20037;-67
2022/08/23 13:49:03;;;;;;;6.00;3.40;;;;;;;;;;4961006;28;20473;-70
2022/08/23 13:51:31;;;;;;;8.93;3.33;;;;;;;;;;4978168;28;20150;-71
2022/08/23 13:53:57;;;;;;;7.00;3.50;;;;;;;;;;4987777;28;20378;-68
2022/08/23 13:56:23;;;;;;;6.63;3.78;;;;;;;;;;4984369;28;20041;-69
2022/08/23 13:58:57;;;;;;;7.03;3.33;;;;;;;;;;4979881;28;20034;-69
2022/08/23 14:01:22;;;;;;;6.35;3.28;;;;;;;;;;4988635;28;20046;-69
2022/08/23 14:03:47;;;;;;;6.07;3.00;;;;;;;;;;4980830;28;20034;-70
2022/08/23 14:06:13;;;;;;;7.30;2.97;;;;;;;;;;4981615;28;20115;-70
2022/08/23 14:08:38;;;;;;;7.53;3.50;;;;;;;;;;4980611;28;20038;-69
2022/08/23 14:11:03;;;;;;;5.47;2.53;;;;;;;;;;4974105;28;20042;-69
2022/08/23 14:13:29;;;;;;;8.00;2.90;;;;;;;;;;4958349;28;20267;-69
2022/08/23 14:15:58;;;;;;;5.88;3.20;;;;;;;;;;4962146;28;20037;-67
2022/08/23 14:18:23;;;;;;;9.95;2.83;;;;;;;;;;4974997;28;20079;-67
2022/08/23 14:20:49;;;;;;;6.25;2.50;;;;;;;;;;4973048;28;20570;-67
2022/08/23 14:23:14;;;;;;;5.80;2.50;;;;;;;;;;4975660;28;22036;-67
2022/08/23 14:25:39;;;;;;;6.10;2.75;;;;;;;;;;4971652;28;20041;-68
2022/08/23 14:28:05;;;;;;;10.75;2.50;;;;;;;;;;4975979;28;20784;-69
2022/08/23 14:30:32;;;;;;;5.70;2.65;;;;;;;;;;4979034;28;20121;-69
2022/08/23 14:32:58;;;;;;;10.57;2.60;;;;;;;;;;4981055;28;20171;-69
2022/08/23 14:35:24;;;;;;;6.97;3.00;;;;;;;;;;4984029;28;20025;-70
2022/08/23 14:37:49;;;;;;;5.82;2.83;;;;;;;;;;4967964;28;20033;-69
2022/08/23 14:40:15;;;;;;;8.32;2.78;;;;;;;;;;4983925;28;20044;-69
2022/08/23 14:42:42;;;;;;;5.65;2.65;;;;;;;;;;4970569;28;20030;-68
2022/08/23 14:45:08;;;;;;;4.32;2.40;;;;;;;;;;4982085;28;20030;-69
2022/08/23 14:47:36;;;;;;;4.88;2.30;;;;;;;;;;4984939;28;20033;-70
2022/08/23 14:50:03;;;;;;;6.22;2.65;;;;;;;;;;4982824;28;20122;-69
2022/08/23 14:52:28;;;;;;;4.75;2.60;;;;;;;;;;4981351;28;20464;-69